aviador You're here:

KMUI Decoded Metar

MUIR in PA, USA
Report Time2017-12-16 02:56:00
UTC Time2017-12-16 03:41:21
Flight Rules mvfr MVFR
WindCalm
Visibility8047 m
Phenomena:Mist
Clouds:Few 065 Hf
CeilingNone
Temp-10°C (ISA -24)
Dew Point-10°C (100% RH)
AAT-13.1°C
QNH1014 hPa
Density Alt-2,507 ft
Elevation489 ft
Report Wrong Elevation
Raw Report
KMUI 160256Z AUTO 00000KT 5SM BR FEW065 M10/M10 A2993 RMK AO2
SLPNO T10991101 51006 FZRANO $=

Extra information for KMUI:More info

Metar Taf Metar & Taf Last 4 Metars F.Rules Stats Wind Profile Meteogram Temp Stats Airport Information Weather charts Add Link Nearby VenuesMetar ALERT Operation Metar Decoded Social comments

AIRNAV info for KMUI